createdAt,value
2018-11-10T00:54:01.261Z,39.23
2018-11-10T00:56:30.026Z,39.10
2018-11-10T00:58:58.673Z,37.40
2018-11-10T01:01:27.621Z,35.27
2018-11-10T01:03:56.361Z,36.40
2018-11-10T01:06:25.034Z,35.37
2018-11-10T01:08:54.074Z,33.93
2018-11-10T01:11:22.456Z,34.63
2018-11-10T01:13:50.850Z,34.93
2018-11-10T01:16:19.458Z,36.40
2018-11-10T01:18:48.092Z,33.57
2018-11-10T01:21:16.872Z,34.17
2018-11-10T01:23:45.224Z,33.37
2018-11-10T01:26:14.243Z,33.03
2018-11-10T01:28:42.876Z,34.37
2018-11-10T01:31:11.579Z,35.93
2018-11-10T01:33:40.266Z,35.10
2018-11-10T01:36:08.913Z,34.53
2018-11-10T01:38:37.418Z,34.77
2018-11-10T01:41:07.315Z,35.77
2018-11-10T01:43:35.708Z,35.93
2018-11-10T01:46:04.324Z,36.47
2018-11-10T01:48:33.004Z,33.03
2018-11-10T01:51:01.458Z,33.50
2018-11-10T01:53:29.887Z,33.53
2018-11-10T01:55:58.448Z,30.60
2018-11-10T01:58:27.017Z,31.67
2018-11-10T02:00:55.874Z,31.47
2018-11-10T02:03:24.384Z,31.80
2018-11-10T02:05:52.739Z,31.93
2018-11-10T02:08:21.122Z,30.47
2018-11-10T02:10:49.498Z,32.37
2018-11-10T02:13:17.929Z,31.30
2018-11-10T02:15:46.717Z,30.53
2018-11-10T02:18:15.093Z,31.47
2018-11-10T02:20:43.565Z,30.93
2018-11-10T02:23:12.165Z,30.47
2018-11-10T02:25:41.155Z,29.03
2018-11-10T02:28:09.586Z,29.63
2018-11-10T02:30:38.139Z,29.67
2018-11-10T02:33:06.512Z,29.13
2018-11-10T02:35:34.980Z,29.83
2018-11-10T02:38:03.349Z,29.57
2018-11-10T02:40:31.729Z,28.83
2018-11-10T02:43:00.433Z,28.70
2018-11-10T02:45:28.841Z,27.33
2018-11-10T02:47:57.226Z,28.57
2018-11-10T02:50:25.603Z,28.20
2018-11-10T02:52:54.347Z,29.03
2018-11-10T02:55:22.922Z,29.23
2018-11-10T02:57:51.334Z,30.07
2018-11-10T03:00:19.737Z,28.63
2018-11-10T03:02:48.093Z,28.47
2018-11-10T03:05:16.473Z,28.50
2018-11-10T03:07:44.841Z,30.23
2018-11-10T03:10:13.543Z,28.37
2018-11-10T03:12:42.284Z,29.00
2018-11-10T03:15:11.813Z,27.30
2018-11-10T03:17:40.190Z,28.67
2018-11-10T03:20:11.063Z,27.77
2018-11-10T03:22:39.418Z,27.60
2018-11-10T03:25:08.495Z,27.43
2018-11-10T03:27:37.153Z,27.60
2018-11-10T03:30:06.361Z,26.77
2018-11-10T03:32:35.868Z,26.23
2018-11-10T03:35:04.816Z,25.37
2018-11-10T03:37:33.210Z,27.70
2018-11-10T03:40:02.334Z,26.20
2018-11-10T03:42:30.760Z,27.50
2018-11-10T03:44:59.371Z,25.73
2018-11-10T03:47:28.668Z,27.10
2018-11-10T03:49:57.395Z,25.63
2018-11-10T03:52:26.122Z,26.60
2018-11-10T03:54:54.944Z,25.97
2018-11-10T03:57:23.311Z,25.93
2018-11-10T03:59:51.836Z,26.57
2018-11-10T04:02:20.215Z,25.90
2018-11-10T04:04:48.568Z,26.80
2018-11-10T04:07:17.285Z,27.10
2018-11-10T04:09:45.661Z,28.27
2018-11-10T04:12:14.359Z,28.33
2018-11-10T04:14:42.760Z,26.63
2018-11-10T04:17:11.442Z,25.90
2018-11-10T04:19:39.947Z,25.73
2018-11-10T04:22:08.448Z,24.83
2018-11-10T04:24:36.841Z,25.50
2018-11-10T04:27:05.301Z,24.70
2018-11-10T04:29:33.685Z,23.77
2018-11-10T04:32:02.075Z,24.23
2018-11-10T04:34:30.461Z,25.30
2018-11-10T04:36:58.885Z,23.43
2018-11-10T04:39:27.244Z,25.13
2018-11-10T04:41:56.198Z,24.27
2018-11-10T04:44:24.590Z,24.57
2018-11-10T04:46:53.443Z,24.30
2018-11-10T04:49:22.119Z,22.80
2018-11-10T04:51:50.592Z,22.97
2018-11-10T04:54:18.988Z,24.70
2018-11-10T04:56:47.589Z,24.30
2018-11-10T04:59:15.989Z,24.87
2018-11-10T05:01:44.935Z,25.53
2018-11-10T05:04:14.222Z,24.77
2018-11-10T05:06:42.587Z,24.47
2018-11-10T05:09:11.939Z,25.53
2018-11-10T05:11:40.933Z,23.87
2018-11-10T05:14:09.906Z,25.63
2018-11-10T05:16:38.924Z,23.87
2018-11-10T05:19:07.289Z,23.37
2018-11-10T05:21:36.050Z,24.10
2018-11-10T05:24:04.978Z,25.40
2018-11-10T05:26:34.353Z,24.87
2018-11-10T05:29:03.224Z,24.50
2018-11-10T05:31:31.971Z,25.73
2018-11-10T05:34:00.384Z,25.37
2018-11-10T05:36:28.762Z,27.20
2018-11-10T05:38:57.704Z,24.93
2018-11-10T05:41:26.344Z,25.73
2018-11-10T05:43:55.089Z,26.10
2018-11-10T05:46:25.560Z,26.37
2018-11-10T05:48:54.308Z,27.17
2018-11-10T05:51:22.656Z,27.87
2018-11-10T05:53:51.161Z,28.10
2018-11-10T05:56:19.540Z,28.83
2018-11-10T05:58:48.104Z,27.80
2018-11-10T06:01:16.701Z,26.80
2018-11-10T06:03:45.110Z,27.53
2018-11-10T06:06:13.480Z,26.83
2018-11-10T06:08:41.995Z,24.93
2018-11-10T06:11:12.433Z,25.33
2018-11-10T06:13:41.147Z,26.23
2018-11-10T06:16:09.574Z,26.97
2018-11-10T06:18:37.947Z,27.50
2018-11-10T06:21:06.607Z,30.07
2018-11-10T06:23:35.021Z,29.20
2018-11-10T06:26:03.439Z,28.63
2018-11-10T06:28:31.775Z,28.40
2018-11-10T06:31:00.160Z,28.50
2018-11-10T06:33:28.789Z,28.17
2018-11-10T06:35:57.527Z,28.27
2018-11-10T06:38:26.141Z,28.23
2018-11-10T06:40:55.947Z,29.07
2018-11-10T06:43:24.350Z,28.90
2018-11-10T06:45:52.772Z,28.47
2018-11-10T06:48:21.171Z,29.67
2018-11-10T06:50:50.492Z,28.90
2018-11-10T06:53:18.915Z,28.10
2018-11-10T06:55:47.592Z,28.27
2018-11-10T06:58:15.960Z,28.60
2018-11-10T07:00:44.608Z,28.63
2018-11-10T07:03:13.330Z,29.53
2018-11-10T07:05:41.721Z,28.47
2018-11-10T07:08:10.433Z,29.20
2018-11-10T07:10:38.972Z,29.27
2018-11-10T07:13:07.795Z,28.47
2018-11-10T07:15:37.658Z,29.03
2018-11-10T07:18:06.416Z,27.30
2018-11-10T07:20:34.767Z,28.83
2018-11-10T07:23:03.150Z,28.13
2018-11-10T07:25:31.804Z,29.07
2018-11-10T07:28:00.442Z,30.10
2018-11-10T07:30:28.817Z,29.17
2018-11-10T07:32:57.267Z,28.70
2018-11-10T07:35:25.888Z,27.00
2018-11-10T07:37:54.332Z,25.07
2018-11-10T07:40:22.728Z,25.43
2018-11-10T07:42:51.293Z,23.57
2018-11-10T07:45:19.708Z,23.50
2018-11-10T07:47:48.142Z,24.53
2018-11-10T07:50:16.576Z,25.37
2018-11-10T07:52:45.671Z,24.23
2018-11-10T07:55:15.405Z,24.97
2018-11-10T07:57:44.224Z,24.47
2018-11-10T08:00:15.243Z,27.40
2018-11-10T08:02:43.682Z,24.73
2018-11-10T08:05:13.027Z,25.80
2018-11-10T08:07:43.023Z,25.87
2018-11-10T08:10:12.824Z,26.17
2018-11-10T08:12:41.394Z,25.30
2018-11-10T08:15:13.389Z,23.97
2018-11-10T08:17:42.376Z,25.03
2018-11-10T08:20:11.611Z,23.93
2018-11-10T08:22:40.483Z,23.43
2018-11-10T08:25:12.211Z,24.70
2018-11-10T08:27:40.582Z,24.50
2018-11-10T08:30:11.148Z,25.70
2018-11-10T08:32:40.148Z,26.90
2018-11-10T08:35:10.457Z,28.60
2018-11-10T08:37:39.200Z,25.13
2018-11-10T08:40:10.371Z,24.20
2018-11-10T08:42:39.174Z,23.27
2018-11-10T08:45:09.242Z,24.40
2018-11-10T08:47:38.143Z,24.27
2018-11-10T08:50:08.034Z,24.30
2018-11-10T08:52:36.893Z,21.83
2018-11-10T08:55:06.287Z,23.60
2018-11-10T08:57:35.045Z,24.87
2018-11-10T09:00:03.954Z,22.57
2018-11-10T09:02:32.365Z,23.53
2018-11-10T09:05:00.792Z,22.13
2018-11-10T09:07:29.471Z,22.27
2018-11-10T09:09:58.676Z,20.40
2018-11-10T09:12:27.030Z,21.63
2018-11-10T09:14:55.485Z,20.73
2018-11-10T09:17:24.095Z,19.10
2018-11-10T09:19:52.512Z,19.77
2018-11-10T09:22:21.240Z,18.80
2018-11-10T09:24:50.202Z,19.13
2018-11-10T09:27:19.348Z,20.57
2018-11-10T09:29:48.009Z,21.23
2018-11-10T09:32:16.427Z,20.03
2018-11-10T09:34:44.867Z,19.33
2018-11-10T09:37:13.959Z,19.67
2018-11-10T09:39:43.107Z,20.17
2018-11-10T09:42:11.987Z,19.97
2018-11-10T09:44:40.313Z,20.33
2018-11-10T09:47:09.021Z,20.70
2018-11-10T09:49:37.702Z,20.90
2018-11-10T09:52:06.179Z,21.57
2018-11-10T09:54:34.633Z,22.40
2018-11-10T09:57:04.341Z,20.67
2018-11-10T09:59:32.891Z,19.87
2018-11-10T10:02:01.632Z,18.40
2018-11-10T10:04:30.736Z,17.73
2018-11-10T10:06:59.398Z,19.03
2018-11-10T10:09:28.065Z,18.30
2018-11-10T10:11:56.765Z,19.23
2018-11-10T10:14:25.209Z,21.20
2018-11-10T10:16:53.624Z,20.83
2018-11-10T10:19:22.218Z,19.90
2018-11-10T10:21:50.928Z,20.40
2018-11-10T10:24:19.352Z,21.27
2018-11-10T10:26:47.981Z,21.67
2018-11-10T10:29:16.396Z,22.30
2018-11-10T10:31:45.352Z,21.83
2018-11-10T10:34:13.802Z,22.40
2018-11-10T10:36:42.173Z,22.53
2018-11-10T10:39:11.103Z,22.33
2018-11-10T10:41:39.867Z,22.37
2018-11-10T10:44:10.345Z,22.70
2018-11-10T10:46:38.989Z,21.50
2018-11-10T10:49:07.430Z,21.67
2018-11-10T10:51:36.187Z,22.00
2018-11-10T10:54:04.623Z,21.87
2018-11-10T10:56:33.208Z,22.27
2018-11-10T10:59:01.791Z,23.70
2018-11-10T11:01:35.452Z,23.43
2018-11-10T11:04:09.074Z,23.30
2018-11-10T11:06:37.738Z,22.67
2018-11-10T11:09:07.638Z,24.53
2018-11-10T11:11:36.315Z,23.17
2018-11-10T11:14:05.035Z,22.77
2018-11-10T11:16:34.018Z,22.33
2018-11-10T11:19:02.709Z,22.00
2018-11-10T11:21:38.066Z,21.23
2018-11-10T11:24:06.662Z,24.87
2018-11-10T11:26:35.990Z,29.60
2018-11-10T11:29:04.513Z,29.00
2018-11-10T11:31:32.889Z,29.13
2018-11-10T11:34:01.326Z,28.67
2018-11-10T11:36:30.140Z,28.57
2018-11-10T11:38:59.026Z,29.10
2018-11-10T11:41:28.395Z,27.73
2018-11-10T11:43:56.954Z,27.47
2018-11-10T11:46:25.547Z,26.67
2018-11-10T11:48:53.950Z,26.00
2018-11-10T11:51:22.533Z,25.83
2018-11-10T11:53:51.010Z,26.60
2018-11-10T11:56:19.481Z,24.93
2018-11-10T11:58:47.883Z,24.87
2018-11-10T12:01:16.512Z,23.73
2018-11-10T12:03:45.448Z,23.10
2018-11-10T12:06:14.268Z,22.40
2018-11-10T12:08:42.855Z,22.30
2018-11-10T12:11:11.580Z,21.77
2018-11-10T12:13:40.594Z,20.40
2018-11-10T12:16:09.160Z,21.43
2018-11-10T12:18:38.151Z,20.83
2018-11-10T12:21:07.230Z,21.30
2018-11-10T12:23:36.152Z,21.33
2018-11-10T12:26:05.185Z,21.47
2018-11-10T12:28:34.481Z,21.63
2018-11-10T12:31:02.904Z,20.67
2018-11-10T12:33:31.318Z,20.70
2018-11-10T12:35:59.791Z,21.53
2018-11-10T12:38:28.492Z,22.40
2018-11-10T12:40:56.907Z,22.93
2018-11-10T12:43:25.336Z,23.87
2018-11-10T12:45:54.085Z,23.30
2018-11-10T12:48:23.068Z,23.27
2018-11-10T12:50:51.724Z,24.47
2018-11-10T12:53:20.126Z,24.33
2018-11-10T12:55:48.557Z,23.70
2018-11-10T12:58:16.995Z,24.47
2018-11-10T13:00:45.389Z,23.20
2018-11-10T13:03:14.447Z,23.47
2018-11-10T13:05:42.908Z,30.53
2018-11-10T13:08:11.323Z,32.63
2018-11-10T13:10:39.762Z,33.30
2018-11-10T13:13:08.619Z,35.93
2018-11-10T13:15:37.104Z,32.90
2018-11-10T13:18:05.541Z,30.20
2018-11-10T13:20:34.375Z,27.90
2018-11-10T13:23:03.602Z,28.00
2018-11-10T13:25:32.365Z,27.77
2018-11-10T13:28:00.755Z,26.67
2018-11-10T13:30:29.165Z,25.73
2018-11-10T13:32:57.561Z,27.93
2018-11-10T13:35:26.171Z,28.07
2018-11-10T13:37:54.574Z,25.50
2018-11-10T13:40:23.302Z,26.27
2018-11-10T13:42:51.937Z,25.77
2018-11-10T13:45:20.972Z,24.73
2018-11-10T13:47:49.654Z,25.00
2018-11-10T13:50:18.080Z,25.77
2018-11-10T13:52:46.804Z,23.57
2018-11-10T13:55:14.912Z,23.47
2018-11-10T13:57:43.336Z,20.43
2018-11-10T14:00:14.335Z,19.90
2018-11-10T14:02:43.595Z,18.80
2018-11-10T14:05:13.526Z,18.97
2018-11-10T14:07:42.529Z,20.17
2018-11-10T14:10:13.351Z,19.50
2018-11-10T14:12:43.047Z,20.10
2018-11-10T14:15:11.445Z,19.90
2018-11-10T14:17:41.244Z,19.73
2018-11-10T14:20:12.334Z,18.77
2018-11-10T14:22:41.094Z,18.50
2018-11-10T14:25:11.640Z,16.00
2018-11-10T14:27:41.963Z,16.33
2018-11-10T14:30:12.729Z,15.37
2018-11-10T14:32:42.316Z,14.97
2018-11-10T14:35:11.157Z,16.30
2018-11-10T14:37:39.866Z,15.23
2018-11-10T14:40:11.382Z,15.73
2018-11-10T14:42:41.020Z,14.93
2018-11-10T14:45:12.121Z,16.37
2018-11-10T14:47:41.709Z,15.33
2018-11-10T14:50:11.358Z,16.13
2018-11-10T14:52:40.229Z,16.57
2018-11-10T14:55:09.623Z,15.87
2018-11-10T14:57:38.462Z,16.37
2018-11-10T15:00:14.231Z,17.00
2018-11-10T15:02:42.864Z,16.43
2018-11-10T15:05:12.688Z,16.57
2018-11-10T15:07:42.709Z,16.70
2018-11-10T15:10:13.835Z,16.53
2018-11-10T15:12:43.692Z,17.17
2018-11-10T15:15:13.555Z,18.10
2018-11-10T15:17:42.711Z,17.93
2018-11-10T15:20:12.691Z,17.67
2018-11-10T15:22:41.162Z,19.50
2018-11-10T15:25:12.091Z,19.77
2018-11-10T15:27:40.976Z,20.30
2018-11-10T15:30:12.748Z,18.07
2018-11-10T15:32:42.150Z,18.63
2018-11-10T15:35:12.268Z,17.83
2018-11-10T15:37:41.651Z,18.30
2018-11-10T15:40:11.489Z,18.33
2018-11-10T15:42:39.879Z,18.27
2018-11-10T15:45:10.004Z,18.63
2018-11-10T15:47:38.433Z,18.47
2018-11-10T15:50:08.406Z,19.60
2018-11-10T15:52:36.854Z,18.87
2018-11-10T15:55:06.412Z,18.50
2018-11-10T15:57:35.243Z,19.27
2018-11-10T16:00:03.818Z,20.43
2018-11-10T16:02:32.416Z,21.67
2018-11-10T16:05:00.822Z,20.63
2018-11-10T16:07:29.309Z,20.20
2018-11-10T16:09:59.008Z,20.17
2018-11-10T16:12:27.974Z,20.27
2018-11-10T16:14:56.409Z,21.50
2018-11-10T16:17:24.996Z,22.07
2018-11-10T16:19:53.519Z,21.93
2018-11-10T16:22:21.917Z,20.77
2018-11-10T16:24:50.443Z,21.37
2018-11-10T16:27:18.973Z,21.97
2018-11-10T16:29:50.721Z,21.40
2018-11-10T16:32:19.516Z,20.43
2018-11-10T16:34:48.255Z,22.93
2018-11-10T16:37:16.665Z,23.33
2018-11-10T16:39:45.543Z,23.17
2018-11-10T16:42:14.017Z,23.90
2018-11-10T16:44:42.611Z,23.97
2018-11-10T16:47:11.400Z,23.93
2018-11-10T16:49:39.766Z,25.37
2018-11-10T16:52:08.221Z,23.43
2018-11-10T16:54:37.024Z,27.73
2018-11-10T16:57:05.794Z,26.53
2018-11-10T16:59:34.283Z,27.80
2018-11-10T17:02:02.836Z,26.87
2018-11-10T17:04:31.463Z,26.40
2018-11-10T17:07:00.225Z,28.27
2018-11-10T17:09:28.665Z,26.40
2018-11-10T17:11:57.068Z,26.93
2018-11-10T17:14:25.580Z,26.87
2018-11-10T17:16:53.984Z,27.57
2018-11-10T17:19:22.991Z,26.27
2018-11-10T17:21:51.943Z,26.90
2018-11-10T17:24:20.213Z,28.10
2018-11-10T17:26:48.830Z,27.53
2018-11-10T17:29:17.392Z,63.03
2018-11-10T17:31:46.134Z,57.10
2018-11-10T17:34:14.700Z,36.27
2018-11-10T17:36:43.300Z,34.03
2018-11-10T17:39:11.986Z,28.00
2018-11-10T17:41:40.272Z,26.43
2018-11-10T17:44:10.066Z,27.93
2018-11-10T17:46:39.624Z,27.57
2018-11-10T17:49:08.456Z,25.73
2018-11-10T17:51:37.002Z,25.77
2018-11-10T17:54:05.747Z,25.57
2018-11-10T17:56:34.367Z,25.63
2018-11-10T17:59:03.093Z,27.50
2018-11-10T18:01:31.891Z,26.60
2018-11-10T18:04:00.862Z,26.47
2018-11-10T18:06:29.432Z,27.40
2018-11-10T18:08:58.172Z,28.30
2018-11-10T18:11:26.587Z,29.23
2018-11-10T18:13:55.228Z,29.93
2018-11-10T18:16:23.589Z,31.00
2018-11-10T18:18:52.076Z,30.87
2018-11-10T18:21:20.601Z,31.17
2018-11-10T18:23:49.266Z,32.10
2018-11-10T18:26:17.662Z,30.87
2018-11-10T18:28:46.061Z,31.93
2018-11-10T18:31:14.560Z,34.13
2018-11-10T18:33:43.114Z,34.17
2018-11-10T18:36:11.575Z,35.60
2018-11-10T18:38:40.161Z,35.70
2018-11-10T18:41:09.234Z,35.43
2018-11-10T18:43:37.776Z,34.67
2018-11-10T18:46:06.615Z,33.93
2018-11-10T18:48:36.062Z,36.03
2018-11-10T18:51:04.816Z,35.37
2018-11-10T18:53:33.554Z,35.43
2018-11-10T18:56:01.988Z,36.23
2018-11-10T18:58:30.394Z,35.83
2018-11-10T19:00:59.056Z,36.40
2018-11-10T19:03:27.595Z,38.17
2018-11-10T19:05:56.260Z,38.23
2018-11-10T19:08:25.370Z,39.00
2018-11-10T19:10:55.001Z,38.67
2018-11-10T19:13:23.920Z,37.93
2018-11-10T19:15:52.657Z,37.37
2018-11-10T19:18:21.612Z,36.40
2018-11-10T19:20:50.615Z,35.13
2018-11-10T19:23:19.642Z,34.57
2018-11-10T19:25:48.065Z,33.97
2018-11-10T19:28:16.722Z,35.30
2018-11-10T19:30:45.234Z,35.70
2018-11-10T19:33:14.003Z,36.67
2018-11-10T19:35:42.815Z,36.63
2018-11-10T19:38:11.423Z,35.70
2018-11-10T19:40:40.112Z,36.20
2018-11-10T19:43:09.132Z,35.57
2018-11-10T19:45:38.399Z,35.10
2018-11-10T19:48:06.823Z,36.37
2018-11-10T19:50:35.531Z,34.73
2018-11-10T19:53:03.923Z,34.00
2018-11-10T19:55:32.850Z,34.43
2018-11-10T19:58:01.461Z,34.03
2018-11-10T20:00:29.908Z,33.87
2018-11-10T20:02:58.578Z,35.13
2018-11-10T20:05:27.071Z,35.80
2018-11-10T20:07:55.633Z,35.40
2018-11-10T20:10:24.056Z,34.37
2018-11-10T20:12:52.521Z,35.67
2018-11-10T20:15:21.302Z,35.23
2018-11-10T20:17:49.939Z,34.87
2018-11-10T20:20:19.291Z,36.17
2018-11-10T20:22:48.095Z,36.30
2018-11-10T20:25:18.014Z,32.33
2018-11-10T20:27:46.682Z,32.83
2018-11-10T20:30:17.528Z,34.90
2018-11-10T20:32:46.580Z,36.03
2018-11-10T20:35:15.862Z,32.20
2018-11-10T20:37:45.167Z,31.60
2018-11-10T20:40:15.003Z,34.17
2018-11-10T20:42:44.045Z,35.70
2018-11-10T20:45:15.282Z,34.30
2018-11-10T20:47:44.147Z,34.03
2018-11-10T20:50:13.309Z,34.40
2018-11-10T20:52:42.442Z,34.47
2018-11-10T20:55:11.743Z,36.70
2018-11-10T20:57:40.392Z,36.27
2018-11-10T21:00:11.565Z,35.10
2018-11-10T21:02:41.222Z,33.03
2018-11-10T21:05:11.116Z,33.77
2018-11-10T21:07:39.795Z,35.93
2018-11-10T21:10:12.204Z,34.87
2018-11-10T21:12:41.848Z,34.20
2018-11-10T21:15:11.072Z,35.63
2018-11-10T21:17:39.484Z,36.00
2018-11-10T21:20:09.943Z,37.97
2018-11-10T21:22:38.638Z,37.07
2018-11-10T21:25:09.340Z,36.63
2018-11-10T21:27:38.504Z,38.17
2018-11-10T21:30:09.077Z,40.73
2018-11-10T21:32:37.704Z,40.07
2018-11-10T21:35:07.319Z,40.17
2018-11-10T21:37:36.211Z,38.90
2018-11-10T21:40:06.548Z,41.63
2018-11-10T21:42:34.976Z,43.50
2018-11-10T21:45:03.577Z,38.13
2018-11-10T21:47:32.272Z,40.03
